sensor_id;sensor_type;location;lat;lon;timestamp;temperature;humidity
11067;DHT22;29763;50.904;5.530;2022-09-09T00:02:27;15.20;99.90
11067;DHT22;29763;50.904;5.530;2022-09-09T00:10:17;15.30;99.90
11067;DHT22;29763;50.904;5.530;2022-09-09T00:13:02;15.30;99.90
11067;DHT22;29763;50.904;5.530;2022-09-09T00:15:40;15.30;99.90
11067;DHT22;29763;50.904;5.530;2022-09-09T00:21:06;15.30;99.90
11067;DHT22;29763;50.904;5.530;2022-09-09T00:23:40;15.30;99.90
11067;DHT22;29763;50.904;5.530;2022-09-09T00:31:36;15.20;99.90
11067;DHT22;29763;50.904;5.530;2022-09-09T00:34:12;15.20;99.90
11067;DHT22;29763;50.904;5.530;2022-09-09T00:36:40;15.10;99.90
11067;DHT22;29763;50.904;5.530;2022-09-09T00:39:13;15.10;99.90
11067;DHT22;29763;50.904;5.530;2022-09-09T00:46:49;15.00;99.90
11067;DHT22;29763;50.904;5.530;2022-09-09T00:57:32;14.80;99.90
11067;DHT22;29763;50.904;5.530;2022-09-09T01:00:25;14.70;99.90
11067;DHT22;29763;50.904;5.530;2022-09-09T01:08:05;14.60;99.90
11067;DHT22;29763;50.904;5.530;2022-09-09T01:10:50;14.70;99.90
11067;DHT22;29763;50.904;5.530;2022-09-09T01:13:35;14.70;99.90
11067;DHT22;29763;50.904;5.530;2022-09-09T01:16:03;14.70;99.90
11067;DHT22;29763;50.904;5.530;2022-09-09T01:18:36;14.70;99.90
11067;DHT22;29763;50.904;5.530;2022-09-09T01:23:53;14.70;99.90
11067;DHT22;29763;50.904;5.530;2022-09-09T01:26:36;14.70;99.90
11067;DHT22;29763;50.904;5.530;2022-09-09T01:29:08;14.70;99.90
11067;DHT22;29763;50.904;5.530;2022-09-09T01:31:53;14.70;99.90
11067;DHT22;29763;50.904;5.530;2022-09-09T01:34:19;14.80;99.90
11067;DHT22;29763;50.904;5.530;2022-09-09T01:39:18;14.70;99.90
11067;DHT22;29763;50.904;5.530;2022-09-09T01:41:45;14.70;99.90
11067;DHT22;29763;50.904;5.530;2022-09-09T01:44:12;14.70;99.90
11067;DHT22;29763;50.904;5.530;2022-09-09T01:46:38;14.80;99.90
11067;DHT22;29763;50.904;5.530;2022-09-09T01:49:06;14.80;99.90
11067;DHT22;29763;50.904;5.530;2022-09-09T01:51:35;14.80;99.90
11067;DHT22;29763;50.904;5.530;2022-09-09T01:54:01;14.80;99.90
11067;DHT22;29763;50.904;5.530;2022-09-09T01:56:47;14.80;99.90
11067;DHT22;29763;50.904;5.530;2022-09-09T02:07:19;14.80;99.90
11067;DHT22;29763;50.904;5.530;2022-09-09T02:09:51;14.80;99.90
11067;DHT22;29763;50.904;5.530;2022-09-09T02:12:21;14.80;99.90
11067;DHT22;29763;50.904;5.530;2022-09-09T02:14:56;14.90;99.90
11067;DHT22;29763;50.904;5.530;2022-09-09T02:17:28;14.90;99.90
11067;DHT22;29763;50.904;5.530;2022-09-09T02:20:15;14.90;99.90
11067;DHT22;29763;50.904;5.530;2022-09-09T02:22:44;14.90;99.90
11067;DHT22;29763;50.904;5.530;2022-09-09T02:25:14;15.00;99.90
11067;DHT22;29763;50.904;5.530;2022-09-09T02:27:41;15.00;99.90
11067;DHT22;29763;50.904;5.530;2022-09-09T02:30:09;15.00;99.90
11067;DHT22;29763;50.904;5.530;2022-09-09T02:32:36;15.00;99.90
11067;DHT22;29763;50.904;5.530;2022-09-09T02:35:07;15.00;99.90
11067;DHT22;29763;50.904;5.530;2022-09-09T02:37:38;15.00;99.90
11067;DHT22;29763;50.904;5.530;2022-09-09T02:40:06;15.00;99.90
11067;DHT22;29763;50.904;5.530;2022-09-09T02:42:42;14.90;99.90
11067;DHT22;29763;50.904;5.530;2022-09-09T02:45:10;14.90;99.90
11067;DHT22;29763;50.904;5.530;2022-09-09T02:50:17;14.90;99.90
11067;DHT22;29763;50.904;5.530;2022-09-09T02:57:46;14.80;99.90
11067;DHT22;29763;50.904;5.530;2022-09-09T03:00:13;14.90;99.90
11067;DHT22;29763;50.904;5.530;2022-09-09T03:02:41;14.90;99.90
11067;DHT22;29763;50.904;5.530;2022-09-09T03:05:07;14.90;99.90
11067;DHT22;29763;50.904;5.530;2022-09-09T03:07:34;14.90;99.90
11067;DHT22;29763;50.904;5.530;2022-09-09T03:10:08;14.90;99.90
11067;DHT22;29763;50.904;5.530;2022-09-09T03:12:34;14.90;99.90
11067;DHT22;29763;50.904;5.530;2022-09-09T03:15:00;14.90;99.90
11067;DHT22;29763;50.904;5.530;2022-09-09T03:17:26;14.90;99.90
11067;DHT22;29763;50.904;5.530;2022-09-09T03:19:53;14.90;99.90
11067;DHT22;29763;50.904;5.530;2022-09-09T03:22:26;14.90;99.90
11067;DHT22;29763;50.904;5.530;2022-09-09T03:24:55;15.00;99.90
11067;DHT22;29763;50.904;5.530;2022-09-09T03:27:21;15.00;99.90
11067;DHT22;29763;50.904;5.530;2022-09-09T03:29:50;15.00;99.90
11067;DHT22;29763;50.904;5.530;2022-09-09T03:32:17;15.00;99.90
11067;DHT22;29763;50.904;5.530;2022-09-09T03:34:44;15.00;99.90
11067;DHT22;29763;50.904;5.530;2022-09-09T03:37:09;15.00;99.90
11067;DHT22;29763;50.904;5.530;2022-09-09T03:39:36;15.00;99.90
11067;DHT22;29763;50.904;5.530;2022-09-09T03:42:04;15.00;99.90
11067;DHT22;29763;50.904;5.530;2022-09-09T03:44:31;15.00;99.90
11067;DHT22;29763;50.904;5.530;2022-09-09T03:46:59;15.10;99.90
11067;DHT22;29763;50.904;5.530;2022-09-09T03:49:28;15.10;99.90
11067;DHT22;29763;50.904;5.530;2022-09-09T03:51:56;15.10;99.90
11067;DHT22;29763;50.904;5.530;2022-09-09T03:54:23;15.10;99.90
11067;DHT22;29763;50.904;5.530;2022-09-09T03:56:49;15.10;99.90
11067;DHT22;29763;50.904;5.530;2022-09-09T03:59:19;15.20;99.90
11067;DHT22;29763;50.904;5.530;2022-09-09T04:01:53;15.20;99.90
11067;DHT22;29763;50.904;5.530;2022-09-09T04:04:20;15.20;99.90
11067;DHT22;29763;50.904;5.530;2022-09-09T04:06:48;15.20;99.90
11067;DHT22;29763;50.904;5.530;2022-09-09T04:09:16;15.20;99.90
11067;DHT22;29763;50.904;5.530;2022-09-09T04:11:42;15.30;99.90
11067;DHT22;29763;50.904;5.530;2022-09-09T04:14:08;15.20;99.90
11067;DHT22;29763;50.904;5.530;2022-09-09T04:16:34;15.30;99.90
11067;DHT22;29763;50.904;5.530;2022-09-09T04:19:06;15.30;99.90
11067;DHT22;29763;50.904;5.530;2022-09-09T04:21:33;15.20;99.90
11067;DHT22;29763;50.904;5.530;2022-09-09T04:24:02;15.20;99.90
11067;DHT22;29763;50.904;5.530;2022-09-09T04:26:32;15.20;99.90
11067;DHT22;29763;50.904;5.530;2022-09-09T04:29:00;15.10;99.90
11067;DHT22;29763;50.904;5.530;2022-09-09T04:31:29;15.20;99.90
11067;DHT22;29763;50.904;5.530;2022-09-09T04:33:55;15.20;99.90
11067;DHT22;29763;50.904;5.530;2022-09-09T04:36:21;15.20;99.90
11067;DHT22;29763;50.904;5.530;2022-09-09T04:38:47;15.20;99.90
11067;DHT22;29763;50.904;5.530;2022-09-09T04:41:16;15.20;99.90
11067;DHT22;29763;50.904;5.530;2022-09-09T04:43:42;15.20;99.90
11067;DHT22;29763;50.904;5.530;2022-09-09T04:46:11;15.30;99.90
11067;DHT22;29763;50.904;5.530;2022-09-09T04:48:37;15.20;99.90
11067;DHT22;29763;50.904;5.530;2022-09-09T04:51:14;15.30;99.90
11067;DHT22;29763;50.904;5.530;2022-09-09T04:53:40;15.30;99.90
11067;DHT22;29763;50.904;5.530;2022-09-09T04:56:10;15.30;99.90
11067;DHT22;29763;50.904;5.530;2022-09-09T04:58:37;15.30;99.90
11067;DHT22;29763;50.904;5.530;2022-09-09T05:01:04;15.30;99.90
11067;DHT22;29763;50.904;5.530;2022-09-09T05:03:33;15.30;99.90
11067;DHT22;29763;50.904;5.530;2022-09-09T05:06:07;15.30;99.90
11067;DHT22;29763;50.904;5.530;2022-09-09T05:08:40;15.30;99.90
11067;DHT22;29763;50.904;5.530;2022-09-09T05:11:25;15.30;99.90
11067;DHT22;29763;50.904;5.530;2022-09-09T05:13:52;15.20;99.90
11067;DHT22;29763;50.904;5.530;2022-09-09T05:16:29;15.20;99.90
11067;DHT22;29763;50.904;5.530;2022-09-09T05:19:07;15.20;99.90
11067;DHT22;29763;50.904;5.530;2022-09-09T05:21:34;15.20;99.90
11067;DHT22;29763;50.904;5.530;2022-09-09T05:24:03;15.20;99.90
11067;DHT22;29763;50.904;5.530;2022-09-09T05:26:29;15.20;99.90
11067;DHT22;29763;50.904;5.530;2022-09-09T05:28:58;15.30;99.90
11067;DHT22;29763;50.904;5.530;2022-09-09T05:31:30;15.30;99.90
11067;DHT22;29763;50.904;5.530;2022-09-09T05:33:56;15.30;99.90
11067;DHT22;29763;50.904;5.530;2022-09-09T05:36:23;15.30;99.90
11067;DHT22;29763;50.904;5.530;2022-09-09T05:38:51;15.40;99.90
11067;DHT22;29763;50.904;5.530;2022-09-09T05:41:19;15.40;99.90
11067;DHT22;29763;50.904;5.530;2022-09-09T05:43:46;15.50;99.90
11067;DHT22;29763;50.904;5.530;2022-09-09T05:46:22;15.50;99.90
11067;DHT22;29763;50.904;5.530;2022-09-09T05:48:56;15.50;99.90
11067;DHT22;29763;50.904;5.530;2022-09-09T05:51:27;15.50;99.90
11067;DHT22;29763;50.904;5.530;2022-09-09T05:53:55;15.50;99.90
11067;DHT22;29763;50.904;5.530;2022-09-09T05:56:26;15.60;99.90
11067;DHT22;29763;50.904;5.530;2022-09-09T05:58:53;15.60;99.90
11067;DHT22;29763;50.904;5.530;2022-09-09T06:01:24;15.70;99.90
11067;DHT22;29763;50.904;5.530;2022-09-09T06:03:55;15.70;99.90
11067;DHT22;29763;50.904;5.530;2022-09-09T06:06:31;15.70;99.90
11067;DHT22;29763;50.904;5.530;2022-09-09T06:09:03;15.70;99.90
11067;DHT22;29763;50.904;5.530;2022-09-09T06:11:32;15.80;99.90
11067;DHT22;29763;50.904;5.530;2022-09-09T06:13:59;15.80;99.90
11067;DHT22;29763;50.904;5.530;2022-09-09T06:16:27;15.80;99.90
11067;DHT22;29763;50.904;5.530;2022-09-09T06:18:56;15.80;99.90
11067;DHT22;29763;50.904;5.530;2022-09-09T06:21:31;15.90;99.90
11067;DHT22;29763;50.904;5.530;2022-09-09T06:23:58;15.90;99.90
11067;DHT22;29763;50.904;5.530;2022-09-09T06:26:32;16.00;99.90
11067;DHT22;29763;50.904;5.530;2022-09-09T06:28:59;16.00;99.90
11067;DHT22;29763;50.904;5.530;2022-09-09T06:31:27;16.10;99.90
11067;DHT22;29763;50.904;5.530;2022-09-09T06:33:56;16.10;99.90
11067;DHT22;29763;50.904;5.530;2022-09-09T06:36:24;16.20;99.90
11067;DHT22;29763;50.904;5.530;2022-09-09T06:38:50;16.20;99.90
11067;DHT22;29763;50.904;5.530;2022-09-09T06:41:19;16.30;99.90
11067;DHT22;29763;50.904;5.530;2022-09-09T06:43:45;16.30;99.90
11067;DHT22;29763;50.904;5.530;2022-09-09T06:46:16;16.40;99.90
11067;DHT22;29763;50.904;5.530;2022-09-09T06:48:43;16.40;99.90
11067;DHT22;29763;50.904;5.530;2022-09-09T06:51:14;16.50;99.90
11067;DHT22;29763;50.904;5.530;2022-09-09T06:53:41;16.50;99.90
11067;DHT22;29763;50.904;5.530;2022-09-09T06:58:40;16.60;99.90
11067;DHT22;29763;50.904;5.530;2022-09-09T07:01:21;16.80;99.90
11067;DHT22;29763;50.904;5.530;2022-09-09T07:03:50;17.10;99.90
11067;DHT22;29763;50.904;5.530;2022-09-09T07:06:24;17.30;99.90
11067;DHT22;29763;50.904;5.530;2022-09-09T07:08:52;17.60;99.90
11067;DHT22;29763;50.904;5.530;2022-09-09T07:11:19;17.80;99.90
11067;DHT22;29763;50.904;5.530;2022-09-09T07:13:46;18.20;99.90
11067;DHT22;29763;50.904;5.530;2022-09-09T07:16:15;18.40;99.90
11067;DHT22;29763;50.904;5.530;2022-09-09T07:18:41;18.60;99.90
11067;DHT22;29763;50.904;5.530;2022-09-09T07:21:08;18.60;99.90
11067;DHT22;29763;50.904;5.530;2022-09-09T07:23:35;18.60;99.90
11067;DHT22;29763;50.904;5.530;2022-09-09T07:26:11;18.60;99.90
11067;DHT22;29763;50.904;5.530;2022-09-09T07:28:38;18.40;99.90
11067;DHT22;29763;50.904;5.530;2022-09-09T07:31:05;18.30;99.90
11067;DHT22;29763;50.904;5.530;2022-09-09T07:33:32;18.20;99.90
11067;DHT22;29763;50.904;5.530;2022-09-09T07:36:06;18.10;99.90
11067;DHT22;29763;50.904;5.530;2022-09-09T07:38:38;18.00;99.90
11067;DHT22;29763;50.904;5.530;2022-09-09T07:41:10;18.00;99.90
11067;DHT22;29763;50.904;5.530;2022-09-09T07:43:40;18.00;99.90
11067;DHT22;29763;50.904;5.530;2022-09-09T07:46:07;18.00;99.90
11067;DHT22;29763;50.904;5.530;2022-09-09T07:48:33;18.10;99.90
11067;DHT22;29763;50.904;5.530;2022-09-09T07:51:12;18.10;99.90
11067;DHT22;29763;50.904;5.530;2022-09-09T07:53:40;18.10;99.90
11067;DHT22;29763;50.904;5.530;2022-09-09T07:56:10;18.30;99.90
11067;DHT22;29763;50.904;5.530;2022-09-09T07:58:37;18.50;99.90
11067;DHT22;29763;50.904;5.530;2022-09-09T08:01:12;18.50;99.90
11067;DHT22;29763;50.904;5.530;2022-09-09T08:03:38;18.40;99.90
11067;DHT22;29763;50.904;5.530;2022-09-09T08:06:06;18.50;99.90
11067;DHT22;29763;50.904;5.530;2022-09-09T08:08:33;18.70;99.90
11067;DHT22;29763;50.904;5.530;2022-09-09T08:11:11;19.00;99.90
11067;DHT22;29763;50.904;5.530;2022-09-09T08:13:37;19.20;99.90
11067;DHT22;29763;50.904;5.530;2022-09-09T08:16:10;19.30;99.90
11067;DHT22;29763;50.904;5.530;2022-09-09T08:18:37;19.20;99.90
11067;DHT22;29763;50.904;5.530;2022-09-09T08:23:42;19.10;99.90
11067;DHT22;29763;50.904;5.530;2022-09-09T08:26:14;18.90;99.90
11067;DHT22;29763;50.904;5.530;2022-09-09T08:28:41;18.70;99.90
11067;DHT22;29763;50.904;5.530;2022-09-09T08:31:15;18.60;99.90
11067;DHT22;29763;50.904;5.530;2022-09-09T08:33:42;18.50;99.90
11067;DHT22;29763;50.904;5.530;2022-09-09T08:36:11;18.40;99.90
11067;DHT22;29763;50.904;5.530;2022-09-09T08:38:39;18.30;99.90
11067;DHT22;29763;50.904;5.530;2022-09-09T08:43:45;18.10;99.90
11067;DHT22;29763;50.904;5.530;2022-09-09T08:46:27;18.10;99.90
11067;DHT22;29763;50.904;5.530;2022-09-09T08:49:17;18.10;99.90
11067;DHT22;29763;50.904;5.530;2022-09-09T08:51:48;18.10;99.90
11067;DHT22;29763;50.904;5.530;2022-09-09T08:54:15;18.10;99.90
11067;DHT22;29763;50.904;5.530;2022-09-09T08:56:41;18.10;99.90
11067;DHT22;29763;50.904;5.530;2022-09-09T08:59:11;18.10;99.90
11067;DHT22;29763;50.904;5.530;2022-09-09T09:02:00;18.20;99.90
11067;DHT22;29763;50.904;5.530;2022-09-09T09:04:41;18.10;99.90
11067;DHT22;29763;50.904;5.530;2022-09-09T09:12:41;18.10;99.90
11067;DHT22;29763;50.904;5.530;2022-09-09T09:15:18;18.10;99.90
11067;DHT22;29763;50.904;5.530;2022-09-09T09:17:45;18.00;99.90
11067;DHT22;29763;50.904;5.530;2022-09-09T09:20:15;17.90;99.90
11067;DHT22;29763;50.904;5.530;2022-09-09T09:22:49;18.00;99.90
11067;DHT22;29763;50.904;5.530;2022-09-09T09:25:20;18.10;99.90
11067;DHT22;29763;50.904;5.530;2022-09-09T09:28:02;18.20;99.90
11067;DHT22;29763;50.904;5.530;2022-09-09T09:31:10;18.20;99.90
11067;DHT22;29763;50.904;5.530;2022-09-09T09:33:51;18.30;99.90
11067;DHT22;29763;50.904;5.530;2022-09-09T09:36:23;18.30;99.90
11067;DHT22;29763;50.904;5.530;2022-09-09T09:38:58;18.20;99.90
11067;DHT22;29763;50.904;5.530;2022-09-09T09:41:38;18.10;99.90
11067;DHT22;29763;50.904;5.530;2022-09-09T09:44:05;18.00;99.90
11067;DHT22;29763;50.904;5.530;2022-09-09T09:46:32;17.90;99.90
11067;DHT22;29763;50.904;5.530;2022-09-09T09:49:03;18.00;99.90
11067;DHT22;29763;50.904;5.530;2022-09-09T09:51:32;18.10;99.90
11067;DHT22;29763;50.904;5.530;2022-09-09T09:54:56;18.10;99.90
11067;DHT22;29763;50.904;5.530;2022-09-09T09:57:10;18.20;99.90
11067;DHT22;29763;50.904;5.530;2022-09-09T09:59:37;18.30;99.90
11067;DHT22;29763;50.904;5.530;2022-09-09T10:02:25;18.30;99.90
11067;DHT22;29763;50.904;5.530;2022-09-09T10:05:21;18.40;99.90
11067;DHT22;29763;50.904;5.530;2022-09-09T10:07:59;18.50;99.90
11067;DHT22;29763;50.904;5.530;2022-09-09T10:10:37;18.50;99.90
11067;DHT22;29763;50.904;5.530;2022-09-09T10:13:18;18.40;99.90
11067;DHT22;29763;50.904;5.530;2022-09-09T10:21:25;18.40;99.90
11067;DHT22;29763;50.904;5.530;2022-09-09T10:26:55;18.50;99.90
11067;DHT22;29763;50.904;5.530;2022-09-09T10:32:45;18.60;99.90
11067;DHT22;29763;50.904;5.530;2022-09-09T10:35:44;18.80;99.90
11067;DHT22;29763;50.904;5.530;2022-09-09T10:38:42;18.70;99.90
11067;DHT22;29763;50.904;5.530;2022-09-09T10:41:14;18.60;99.90
11067;DHT22;29763;50.904;5.530;2022-09-09T10:52:50;17.50;99.90
11067;DHT22;29763;50.904;5.530;2022-09-09T10:55:20;17.40;99.90
11067;DHT22;29763;50.904;5.530;2022-09-09T10:57:53;17.30;99.90
11067;DHT22;29763;50.904;5.530;2022-09-09T11:00:42;17.20;99.90
11067;DHT22;29763;50.904;5.530;2022-09-09T11:03:29;17.30;99.90
11067;DHT22;29763;50.904;5.530;2022-09-09T11:06:04;17.40;99.90
11067;DHT22;29763;50.904;5.530;2022-09-09T11:08:32;17.60;99.90
11067;DHT22;29763;50.904;5.530;2022-09-09T11:11:06;17.90;99.90
11067;DHT22;29763;50.904;5.530;2022-09-09T11:16:36;18.50;99.90
11067;DHT22;29763;50.904;5.530;2022-09-09T11:21:48;19.00;99.90
11067;DHT22;29763;50.904;5.530;2022-09-09T11:24:39;19.20;99.90
11067;DHT22;29763;50.904;5.530;2022-09-09T11:27:57;19.30;99.90
11067;DHT22;29763;50.904;5.530;2022-09-09T11:30:50;19.70;99.90
11067;DHT22;29763;50.904;5.530;2022-09-09T11:33:48;19.90;99.90
11067;DHT22;29763;50.904;5.530;2022-09-09T11:36:49;19.70;99.90
11067;DHT22;29763;50.904;5.530;2022-09-09T11:42:17;19.50;99.90
11067;DHT22;29763;50.904;5.530;2022-09-09T11:44:44;19.30;99.90
11067;DHT22;29763;50.904;5.530;2022-09-09T11:47:27;19.20;99.90
11067;DHT22;29763;50.904;5.530;2022-09-09T11:52:43;19.10;99.90
11067;DHT22;29763;50.904;5.530;2022-09-09T11:55:28;19.00;99.90
11067;DHT22;29763;50.904;5.530;2022-09-09T11:58:03;19.10;99.90
11067;DHT22;29763;50.904;5.530;2022-09-09T12:00:39;19.00;99.90
11067;DHT22;29763;50.904;5.530;2022-09-09T12:03:38;19.10;99.90
11067;DHT22;29763;50.904;5.530;2022-09-09T12:06:29;19.20;99.90
11067;DHT22;29763;50.904;5.530;2022-09-09T12:09:59;19.30;99.90
11067;DHT22;29763;50.904;5.530;2022-09-09T12:14:42;19.50;99.90
11067;DHT22;29763;50.904;5.530;2022-09-09T12:17:21;19.30;99.90
11067;DHT22;29763;50.904;5.530;2022-09-09T12:19:48;19.10;99.90
11067;DHT22;29763;50.904;5.530;2022-09-09T12:28:20;18.70;99.90
11067;DHT22;29763;50.904;5.530;2022-09-09T12:33:17;18.60;99.90
11067;DHT22;29763;50.904;5.530;2022-09-09T12:35:45;18.20;99.90
11067;DHT22;29763;50.904;5.530;2022-09-09T12:38:20;17.40;99.90
11067;DHT22;29763;50.904;5.530;2022-09-09T12:40:58;17.00;99.90
11067;DHT22;29763;50.904;5.530;2022-09-09T12:43:25;16.60;99.90
11067;DHT22;29763;50.904;5.530;2022-09-09T12:45:54;16.20;99.90
11067;DHT22;29763;50.904;5.530;2022-09-09T12:48:29;16.10;99.90
11067;DHT22;29763;50.904;5.530;2022-09-09T12:50:56;15.90;99.90
11067;DHT22;29763;50.904;5.530;2022-09-09T12:53:26;15.90;99.90
11067;DHT22;29763;50.904;5.530;2022-09-09T12:55:59;15.90;99.90
11067;DHT22;29763;50.904;5.530;2022-09-09T12:58:26;16.20;99.90
11067;DHT22;29763;50.904;5.530;2022-09-09T13:01:00;16.50;99.90
11067;DHT22;29763;50.904;5.530;2022-09-09T13:03:26;16.80;99.90
11067;DHT22;29763;50.904;5.530;2022-09-09T13:05:53;17.00;99.90
11067;DHT22;29763;50.904;5.530;2022-09-09T13:08:25;17.30;99.90
11067;DHT22;29763;50.904;5.530;2022-09-09T13:11:06;17.60;99.90
11067;DHT22;29763;50.904;5.530;2022-09-09T13:13:38;18.10;99.90
11067;DHT22;29763;50.904;5.530;2022-09-09T13:16:07;18.60;99.90
11067;DHT22;29763;50.904;5.530;2022-09-09T13:18:43;18.90;99.90
11067;DHT22;29763;50.904;5.530;2022-09-09T13:21:09;19.30;99.90
11067;DHT22;29763;50.904;5.530;2022-09-09T13:23:38;19.50;99.90
11067;DHT22;29763;50.904;5.530;2022-09-09T13:26:25;19.70;99.90
11067;DHT22;29763;50.904;5.530;2022-09-09T13:28:53;19.80;99.90
11067;DHT22;29763;50.904;5.530;2022-09-09T13:31:33;19.80;99.90
11067;DHT22;29763;50.904;5.530;2022-09-09T13:33:58;20.00;99.90
11067;DHT22;29763;50.904;5.530;2022-09-09T13:36:33;20.10;99.90
11067;DHT22;29763;50.904;5.530;2022-09-09T13:39:02;20.20;99.90
11067;DHT22;29763;50.904;5.530;2022-09-09T13:41:55;20.30;99.90
11067;DHT22;29763;50.904;5.530;2022-09-09T13:44:24;20.60;99.90
11067;DHT22;29763;50.904;5.530;2022-09-09T13:47:39;20.80;99.90
11067;DHT22;29763;50.904;5.530;2022-09-09T13:50:09;21.20;99.90
11067;DHT22;29763;50.904;5.530;2022-09-09T13:52:35;21.20;99.90
11067;DHT22;29763;50.904;5.530;2022-09-09T13:55:00;21.20;99.90
11067;DHT22;29763;50.904;5.530;2022-09-09T13:57:26;21.00;99.90
11067;DHT22;29763;50.904;5.530;2022-09-09T13:59:54;20.80;99.90
11067;DHT22;29763;50.904;5.530;2022-09-09T14:02:20;20.60;99.90
11067;DHT22;29763;50.904;5.530;2022-09-09T14:04:48;21.00;99.90
11067;DHT22;29763;50.904;5.530;2022-09-09T14:07:17;21.50;99.90
11067;DHT22;29763;50.904;5.530;2022-09-09T14:09:43;21.70;99.90
11067;DHT22;29763;50.904;5.530;2022-09-09T14:12:11;21.50;99.90
11067;DHT22;29763;50.904;5.530;2022-09-09T14:14:37;21.40;99.90
11067;DHT22;29763;50.904;5.530;2022-09-09T14:17:03;21.40;99.90
11067;DHT22;29763;50.904;5.530;2022-09-09T14:19:29;21.30;99.90
11067;DHT22;29763;50.904;5.530;2022-09-09T14:21:57;21.10;99.90
11067;DHT22;29763;50.904;5.530;2022-09-09T14:24:22;20.90;99.90
11067;DHT22;29763;50.904;5.530;2022-09-09T14:26:48;21.00;99.90
11067;DHT22;29763;50.904;5.530;2022-09-09T14:29:14;21.10;99.90
11067;DHT22;29763;50.904;5.530;2022-09-09T14:31:40;21.40;99.90
11067;DHT22;29763;50.904;5.530;2022-09-09T14:34:06;21.50;99.90
11067;DHT22;29763;50.904;5.530;2022-09-09T14:36:32;21.40;99.90
11067;DHT22;29763;50.904;5.530;2022-09-09T14:38:59;21.30;99.90
11067;DHT22;29763;50.904;5.530;2022-09-09T14:41:24;21.10;99.90
11067;DHT22;29763;50.904;5.530;2022-09-09T14:43:51;21.00;99.90
11067;DHT22;29763;50.904;5.530;2022-09-09T14:46:19;20.80;99.90
11067;DHT22;29763;50.904;5.530;2022-09-09T14:48:45;20.80;99.90
11067;DHT22;29763;50.904;5.530;2022-09-09T14:51:24;21.00;99.90
11067;DHT22;29763;50.904;5.530;2022-09-09T14:53:54;21.40;99.90
11067;DHT22;29763;50.904;5.530;2022-09-09T14:56:24;21.40;99.90
11067;DHT22;29763;50.904;5.530;2022-09-09T14:58:50;21.40;99.90
11067;DHT22;29763;50.904;5.530;2022-09-09T15:01:18;21.20;99.90
11067;DHT22;29763;50.904;5.530;2022-09-09T15:03:50;21.10;99.90
11067;DHT22;29763;50.904;5.530;2022-09-09T15:06:16;21.00;99.90
11067;DHT22;29763;50.904;5.530;2022-09-09T15:08:44;21.10;99.90
11067;DHT22;29763;50.904;5.530;2022-09-09T15:11:11;21.40;99.90
11067;DHT22;29763;50.904;5.530;2022-09-09T15:13:41;21.70;99.90
11067;DHT22;29763;50.904;5.530;2022-09-09T15:16:15;21.70;99.90
11067;DHT22;29763;50.904;5.530;2022-09-09T15:18:42;21.80;99.90
11067;DHT22;29763;50.904;5.530;2022-09-09T15:21:10;21.80;99.90
11067;DHT22;29763;50.904;5.530;2022-09-09T15:23:37;21.60;99.90
11067;DHT22;29763;50.904;5.530;2022-09-09T15:26:03;21.20;99.90
11067;DHT22;29763;50.904;5.530;2022-09-09T15:28:31;21.00;99.90
11067;DHT22;29763;50.904;5.530;2022-09-09T15:30:58;21.00;99.90
11067;DHT22;29763;50.904;5.530;2022-09-09T15:33:25;21.10;99.90
11067;DHT22;29763;50.904;5.530;2022-09-09T15:35:51;21.30;99.90
11067;DHT22;29763;50.904;5.530;2022-09-09T15:38:17;21.10;99.90
11067;DHT22;29763;50.904;5.530;2022-09-09T15:40:45;20.80;99.90
11067;DHT22;29763;50.904;5.530;2022-09-09T15:43:18;20.60;99.90
11067;DHT22;29763;50.904;5.530;2022-09-09T15:45:46;20.30;99.90
11067;DHT22;29763;50.904;5.530;2022-09-09T15:48:14;20.00;99.90
11067;DHT22;29763;50.904;5.530;2022-09-09T15:50:40;19.90;99.90
11067;DHT22;29763;50.904;5.530;2022-09-09T15:53:05;19.90;99.90
11067;DHT22;29763;50.904;5.530;2022-09-09T15:55:31;19.90;99.90
11067;DHT22;29763;50.904;5.530;2022-09-09T15:57:57;19.90;99.90
11067;DHT22;29763;50.904;5.530;2022-09-09T16:00:23;19.90;99.90
11067;DHT22;29763;50.904;5.530;2022-09-09T16:02:49;20.00;99.90
11067;DHT22;29763;50.904;5.530;2022-09-09T16:05:16;20.10;99.90
11067;DHT22;29763;50.904;5.530;2022-09-09T16:07:41;20.30;99.90
11067;DHT22;29763;50.904;5.530;2022-09-09T16:10:08;20.50;99.90
11067;DHT22;29763;50.904;5.530;2022-09-09T16:12:34;20.70;99.90
11067;DHT22;29763;50.904;5.530;2022-09-09T16:15:00;20.70;99.90
11067;DHT22;29763;50.904;5.530;2022-09-09T16:17:26;20.70;99.90
11067;DHT22;29763;50.904;5.530;2022-09-09T16:19:53;20.50;99.90
11067;DHT22;29763;50.904;5.530;2022-09-09T16:22:20;20.30;99.90
11067;DHT22;29763;50.904;5.530;2022-09-09T16:24:45;20.00;99.90
11067;DHT22;29763;50.904;5.530;2022-09-09T16:27:11;19.80;99.90
11067;DHT22;29763;50.904;5.530;2022-09-09T16:29:37;19.40;99.90
11067;DHT22;29763;50.904;5.530;2022-09-09T16:32:03;19.00;99.90
11067;DHT22;29763;50.904;5.530;2022-09-09T16:34:29;18.60;99.90
11067;DHT22;29763;50.904;5.530;2022-09-09T16:36:54;18.40;99.90
11067;DHT22;29763;50.904;5.530;2022-09-09T16:39:21;18.20;99.90
11067;DHT22;29763;50.904;5.530;2022-09-09T16:41:48;18.00;99.90
11067;DHT22;29763;50.904;5.530;2022-09-09T16:44:15;17.90;99.90
11067;DHT22;29763;50.904;5.530;2022-09-09T16:46:44;17.90;99.90
11067;DHT22;29763;50.904;5.530;2022-09-09T16:49:12;17.80;99.90
11067;DHT22;29763;50.904;5.530;2022-09-09T16:51:48;17.70;99.90
11067;DHT22;29763;50.904;5.530;2022-09-09T16:54:15;17.70;99.90
11067;DHT22;29763;50.904;5.530;2022-09-09T16:56:44;17.70;99.90
11067;DHT22;29763;50.904;5.530;2022-09-09T16:59:15;17.80;99.90
11067;DHT22;29763;50.904;5.530;2022-09-09T17:01:42;17.80;99.90
11067;DHT22;29763;50.904;5.530;2022-09-09T17:04:12;17.80;99.90
11067;DHT22;29763;50.904;5.530;2022-09-09T17:06:39;17.80;99.90
11067;DHT22;29763;50.904;5.530;2022-09-09T17:09:09;17.80;99.90
11067;DHT22;29763;50.904;5.530;2022-09-09T17:11:36;17.80;99.90
11067;DHT22;29763;50.904;5.530;2022-09-09T17:14:03;17.70;99.90
11067;DHT22;29763;50.904;5.530;2022-09-09T17:16:31;17.70;99.90
11067;DHT22;29763;50.904;5.530;2022-09-09T17:18:57;17.60;99.90
11067;DHT22;29763;50.904;5.530;2022-09-09T17:21:25;17.60;99.90
11067;DHT22;29763;50.904;5.530;2022-09-09T17:23:52;17.50;99.90
11067;DHT22;29763;50.904;5.530;2022-09-09T17:26:21;17.50;99.90
11067;DHT22;29763;50.904;5.530;2022-09-09T17:28:47;17.40;99.90
11067;DHT22;29763;50.904;5.530;2022-09-09T17:31:15;17.40;99.90
11067;DHT22;29763;50.904;5.530;2022-09-09T17:33:47;17.40;99.90
11067;DHT22;29763;50.904;5.530;2022-09-09T17:36:19;17.40;99.90
11067;DHT22;29763;50.904;5.530;2022-09-09T17:38:45;17.40;99.90
11067;DHT22;29763;50.904;5.530;2022-09-09T17:43:39;17.30;99.90
11067;DHT22;29763;50.904;5.530;2022-09-09T17:46:17;17.30;99.90
11067;DHT22;29763;50.904;5.530;2022-09-09T17:48:45;17.20;99.90